Time;durP1;ratioP1;P1;durP2;ratioP2;P2;SDS_P1;SDS_P2;PMS_P1;PMS_P2;Temp;Humidity;BMP_temperature;BMP_pressure;BME280_temperature;BME280_humidity;BME280_pressure;Samples;Min_cycle;Max_cycle;Signal;HPM_P1;HPM_P2
2023/05/07 00:01:47;;;;;;;6.90;4.67;;;13.10;99.90;;;;;;4160448;28;20075;-73
2023/05/07 00:03:48;;;;;;;6.93;4.10;;;13.10;99.90;;;;;;4159415;28;20096;-71
2023/05/07 00:05:49;;;;;;;4.20;3.80;;;13.10;99.90;;;;;;4148399;28;20065;-71
2023/05/07 00:07:52;;;;;;;6.17;4.50;;;13.00;99.90;;;;;;4138574;28;20088;-68
2023/05/07 00:09:53;;;;;;;6.90;4.37;;;13.00;99.90;;;;;;4149945;28;20080;-58
2023/05/07 00:11:54;;;;;;;7.43;4.63;;;13.00;99.90;;;;;;4154037;28;20132;-73
2023/05/07 00:13:55;;;;;;;5.63;4.13;;;12.90;99.90;;;;;;4147865;28;20120;-74
2023/05/07 00:15:57;;;;;;;6.43;4.40;;;12.90;99.90;;;;;;4144157;28;20038;-70
2023/05/07 00:17:59;;;;;;;9.13;3.90;;;12.80;99.90;;;;;;4145188;28;20022;-70
2023/05/07 00:20:00;;;;;;;6.03;3.93;;;12.70;99.90;;;;;;4146972;28;20030;-74
2023/05/07 00:22:01;;;;;;;5.03;4.30;;;12.70;99.90;;;;;;4149566;28;20080;-70
2023/05/07 00:24:03;;;;;;;7.10;4.20;;;12.60;99.90;;;;;;4158337;28;20103;-74
2023/05/07 00:26:04;;;;;;;8.03;4.03;;;12.60;99.90;;;;;;4161714;28;20025;-74
2023/05/07 00:28:05;;;;;;;4.33;3.73;;;12.60;99.90;;;;;;4162533;28;20080;-68
2023/05/07 00:30:07;;;;;;;5.43;4.10;;;12.50;99.90;;;;;;4152170;28;20053;-73
2023/05/07 00:32:08;;;;;;;7.00;4.47;;;12.50;99.90;;;;;;4163425;28;20041;-69
2023/05/07 00:34:09;;;;;;;9.37;4.80;;;12.50;99.90;;;;;;4163790;28;20038;-73
2023/05/07 00:36:11;;;;;;;7.33;4.83;;;12.40;99.90;;;;;;4164394;28;20416;-73
2023/05/07 00:38:12;;;;;;;8.03;4.57;;;12.40;99.90;;;;;;4163111;28;20033;-73
2023/05/07 00:40:13;;;;;;;6.50;5.10;;;12.30;99.90;;;;;;4162711;28;20049;-71
2023/05/07 00:42:16;;;;;;;14.13;4.47;;;12.20;99.90;;;;;;4162684;28;20088;-71
2023/05/07 00:44:18;;;;;;;5.63;4.63;;;12.10;99.90;;;;;;4163567;28;20095;-74
2023/05/07 00:46:20;;;;;;;12.50;5.20;;;12.00;99.90;;;;;;4156660;28;20494;-72
2023/05/07 00:48:24;;;;;;;8.37;4.70;;;12.00;99.90;;;;;;4160215;28;20038;-72
2023/05/07 00:50:26;;;;;;;8.70;5.50;;;11.90;99.90;;;;;;4150176;28;20026;-68
2023/05/07 00:52:28;;;;;;;8.27;4.20;;;12.00;99.90;;;;;;4160308;28;20045;-74
2023/05/07 00:54:29;;;;;;;5.70;4.27;;;12.00;99.90;;;;;;4153945;28;20453;-71
2023/05/07 00:56:31;;;;;;;6.33;4.50;;;12.00;99.90;;;;;;4153249;28;20034;-74
2023/05/07 00:58:33;;;;;;;6.77;4.30;;;12.00;99.90;;;;;;4159027;28;20029;-74
2023/05/07 01:00:35;;;;;;;10.67;5.40;;;12.00;99.90;;;;;;4155135;28;20558;-72
2023/05/07 01:02:36;;;;;;;6.67;5.30;;;11.90;99.90;;;;;;4154000;28;20479;-67
2023/05/07 01:04:37;;;;;;;6.90;5.10;;;11.80;99.90;;;;;;4159626;28;20474;-74
2023/05/07 01:06:39;;;;;;;7.17;4.70;;;11.70;99.90;;;;;;4153097;28;20022;-69
2023/05/07 01:08:41;;;;;;;7.57;4.97;;;11.70;99.90;;;;;;4156162;28;20099;-74
2023/05/07 01:10:44;;;;;;;7.57;4.87;;;11.60;99.90;;;;;;4162315;28;20052;-73
2023/05/07 01:12:46;;;;;;;9.30;4.83;;;11.60;99.90;;;;;;4141420;28;20046;-74
2023/05/07 01:14:49;;;;;;;10.00;5.40;;;11.70;99.90;;;;;;4160010;28;20029;-73
2023/05/07 01:16:53;;;;;;;7.90;4.57;;;11.70;99.90;;;;;;4147694;28;20022;-73
2023/05/07 01:18:55;;;;;;;8.37;4.87;;;11.60;99.90;;;;;;4158235;28;20037;-68
2023/05/07 01:20:59;;;;;;;5.73;4.40;;;11.70;99.90;;;;;;4157313;28;20053;-74
2023/05/07 01:23:01;;;;;;;6.57;4.77;;;11.70;99.90;;;;;;4151455;28;20042;-67
2023/05/07 01:25:03;;;;;;;6.73;5.00;;;11.70;99.90;;;;;;4146776;28;20127;-72
2023/05/07 01:27:05;;;;;;;9.87;5.77;;;11.70;99.90;;;;;;4153436;28;20074;-73
2023/05/07 01:29:06;;;;;;;10.07;4.93;;;11.60;99.90;;;;;;4157895;28;20087;-71
2023/05/07 01:31:09;;;;;;;7.57;4.73;;;11.70;99.90;;;;;;4162362;28;20034;-73
2023/05/07 01:33:15;;;;;;;11.17;4.67;;;11.70;99.90;;;;;;4155542;28;20100;-74
2023/05/07 01:35:24;;;;;;;7.33;4.90;;;11.70;99.90;;;;;;4137370;28;20474;-74
2023/05/07 01:37:26;;;;;;;8.33;5.37;;;11.70;99.90;;;;;;4146474;28;20104;-72
2023/05/07 01:39:29;;;;;;;8.73;5.20;;;11.80;99.90;;;;;;4147197;28;20072;-74
2023/05/07 01:41:30;;;;;;;5.90;4.43;;;11.80;99.90;;;;;;4146818;28;20037;-73
2023/05/07 01:43:31;;;;;;;6.00;4.30;;;11.80;99.90;;;;;;4147271;28;20038;-73
2023/05/07 01:45:33;;;;;;;6.97;4.47;;;11.90;99.90;;;;;;4147131;28;20076;-75
2023/05/07 01:47:37;;;;;;;6.13;4.57;;;11.90;99.90;;;;;;4146659;28;20095;-70
2023/05/07 01:49:38;;;;;;;8.50;4.27;;;11.80;99.90;;;;;;4147299;28;20080;-74
2023/05/07 01:51:39;;;;;;;9.00;4.10;;;11.80;99.90;;;;;;4156369;28;20033;-74
2023/05/07 01:53:41;;;;;;;5.63;4.23;;;11.80;99.90;;;;;;4162679;28;20127;-74
2023/05/07 01:55:42;;;;;;;8.37;4.57;;;11.80;99.90;;;;;;4161688;28;20111;-75
2023/05/07 01:57:44;;;;;;;8.20;4.57;;;11.80;99.90;;;;;;4163729;28;20026;-73
2023/05/07 01:59:45;;;;;;;6.33;5.00;;;11.80;99.90;;;;;;4150371;28;20041;-71
2023/05/07 02:01:46;;;;;;;7.30;4.80;;;11.90;99.90;;;;;;4161046;28;20045;-72
2023/05/07 02:03:47;;;;;;;7.80;4.13;;;11.90;99.90;;;;;;4162627;28;20087;-71
2023/05/07 02:05:48;;;;;;;6.73;4.87;;;11.90;99.90;;;;;;4159541;28;20041;-67
2023/05/07 02:07:49;;;;;;;9.20;5.20;;;12.00;99.90;;;;;;4155363;28;20029;-73
2023/05/07 02:09:50;;;;;;;8.57;5.57;;;11.90;99.90;;;;;;4146995;28;20076;-73
2023/05/07 02:11:51;;;;;;;8.63;5.00;;;11.80;99.90;;;;;;4151183;28;20037;-63
2023/05/07 02:13:53;;;;;;;7.00;4.97;;;11.80;99.90;;;;;;4163371;28;20051;-73
2023/05/07 02:15:54;;;;;;;7.40;5.23;;;11.60;99.90;;;;;;4149957;28;20104;-74
2023/05/07 02:18:03;;;;;;;8.17;5.13;;;11.60;99.90;;;;;;4150911;28;20159;-73
2023/05/07 02:20:05;;;;;;;7.10;5.10;;;11.60;99.90;;;;;;4144054;28;20093;-73
2023/05/07 02:22:07;;;;;;;7.60;4.40;;;11.60;99.90;;;;;;4149445;28;20096;-73
2023/05/07 02:24:08;;;;;;;7.00;4.33;;;11.70;99.90;;;;;;4146780;28;20470;-70
2023/05/07 02:26:11;;;;;;;6.23;4.03;;;11.70;99.90;;;;;;4154643;28;20029;-72
2023/05/07 02:28:12;;;;;;;7.30;4.53;;;11.80;99.90;;;;;;4163882;28;20798;-73
2023/05/07 02:30:14;;;;;;;5.37;4.23;;;11.80;99.90;;;;;;4160485;28;20022;-67
2023/05/07 02:32:15;;;;;;;6.20;4.43;;;11.80;99.90;;;;;;4162717;28;20033;-72
2023/05/07 02:34:17;;;;;;;9.50;4.20;;;11.90;99.90;;;;;;4161449;28;20041;-73
2023/05/07 02:36:18;;;;;;;6.10;4.07;;;11.90;99.90;;;;;;4159352;28;20022;-72
2023/05/07 02:38:19;;;;;;;6.77;3.93;;;11.90;99.90;;;;;;4152655;28;20037;-71
2023/05/07 02:40:20;;;;;;;5.13;4.07;;;11.90;99.90;;;;;;4163211;28;20033;-72
2023/05/07 02:42:21;;;;;;;7.77;4.23;;;11.90;99.90;;;;;;4161563;28;20565;-72
2023/05/07 02:44:22;;;;;;;4.57;3.90;;;11.90;99.90;;;;;;4162704;28;20501;-73
2023/05/07 02:46:24;;;;;;;7.03;4.00;;;12.00;99.90;;;;;;4161676;28;20540;-68
2023/05/07 02:48:25;;;;;;;8.03;4.00;;;12.00;99.90;;;;;;4162673;28;20025;-72
2023/05/07 02:50:26;;;;;;;6.13;4.50;;;12.00;99.90;;;;;;4158398;28;20064;-72
2023/05/07 02:52:28;;;;;;;5.17;3.60;;;12.10;99.90;;;;;;4156389;28;20120;-73
2023/05/07 02:54:29;;;;;;;7.30;5.23;;;12.10;99.90;;;;;;4146119;28;20084;-69
2023/05/07 02:56:30;;;;;;;6.57;4.07;;;12.10;99.90;;;;;;4145410;28;20053;-72
2023/05/07 02:58:31;;;;;;;5.50;3.67;;;12.10;99.90;;;;;;4146879;28;20030;-73
2023/05/07 03:00:32;;;;;;;7.50;4.23;;;12.10;99.90;;;;;;4144525;28;20108;-72
2023/05/07 03:02:33;;;;;;;6.47;3.50;;;12.10;99.90;;;;;;4148726;28;20030;-70
2023/05/07 03:04:34;;;;;;;6.67;4.47;;;12.10;99.90;;;;;;4151383;28;20033;-73
2023/05/07 03:06:36;;;;;;;6.53;4.30;;;12.10;99.90;;;;;;4147052;28;20083;-71
2023/05/07 03:08:37;;;;;;;7.30;3.80;;;12.10;99.90;;;;;;4145117;28;20030;-72
2023/05/07 03:10:38;;;;;;;5.73;4.17;;;12.00;99.90;;;;;;4146253;28;20034;-74
2023/05/07 03:12:39;;;;;;;7.27;4.53;;;12.10;99.90;;;;;;4144978;28;20092;-68
2023/05/07 03:14:40;;;;;;;5.13;4.00;;;12.10;99.90;;;;;;4145867;28;20041;-74
2023/05/07 03:16:41;;;;;;;6.10;4.03;;;12.10;99.90;;;;;;4153737;28;20077;-72
2023/05/07 03:18:42;;;;;;;6.77;4.23;;;12.10;99.90;;;;;;4145203;28;20084;-73
2023/05/07 03:20:43;;;;;;;6.37;4.13;;;12.10;99.90;;;;;;4146410;28;20033;-73
2023/05/07 03:22:45;;;;;;;7.37;4.10;;;12.10;99.90;;;;;;4154275;28;20103;-73
2023/05/07 03:24:46;;;;;;;4.27;3.83;;;12.20;99.90;;;;;;4128539;28;20109;-67
2023/05/07 03:26:47;;;;;;;5.70;4.47;;;12.20;99.90;;;;;;4144350;28;20046;-73
2023/05/07 03:28:48;;;;;;;9.87;6.67;;;12.20;99.90;;;;;;4151259;28;20079;-73
2023/05/07 03:30:49;;;;;;;8.10;5.73;;;12.20;99.90;;;;;;4160231;28;20131;-71
2023/05/07 03:32:50;;;;;;;6.07;4.93;;;12.20;99.90;;;;;;4150273;28;20072;-73
2023/05/07 03:34:52;;;;;;;7.10;4.90;;;12.10;99.90;;;;;;4144831;28;20030;-68
2023/05/07 03:36:53;;;;;;;8.50;5.70;;;12.10;99.90;;;;;;4146635;28;20080;-71
2023/05/07 03:38:54;;;;;;;7.60;5.23;;;12.00;99.90;;;;;;4149853;28;20416;-73
2023/05/07 03:40:55;;;;;;;9.27;5.57;;;12.00;99.90;;;;;;4161222;28;20449;-73
2023/05/07 03:42:56;;;;;;;8.63;4.90;;;12.00;99.90;;;;;;4159779;28;20059;-73
2023/05/07 03:44:57;;;;;;;5.40;4.27;;;12.00;99.90;;;;;;4146593;28;20529;-67
2023/05/07 03:46:59;;;;;;;7.60;4.50;;;12.10;99.90;;;;;;4159558;28;20033;-73
2023/05/07 03:49:00;;;;;;;4.80;4.30;;;12.10;99.90;;;;;;4162012;28;20087;-58
2023/05/07 03:51:01;;;;;;;8.30;5.00;;;12.20;99.90;;;;;;4157804;28;20227;-59
2023/05/07 03:53:02;;;;;;;10.20;5.10;;;12.20;99.90;;;;;;4150771;28;20072;-58
2023/05/07 03:55:04;;;;;;;6.37;4.40;;;12.20;99.90;;;;;;4161489;28;20470;-58
2023/05/07 03:57:05;;;;;;;8.20;4.40;;;12.20;99.90;;;;;;4160197;28;20490;-73
2023/05/07 03:59:06;;;;;;;4.10;3.70;;;12.20;99.90;;;;;;4161642;28;20045;-60
2023/05/07 04:01:07;;;;;;;5.50;4.07;;;12.30;99.90;;;;;;4155527;28;20128;-60
2023/05/07 04:03:09;;;;;;;5.80;4.20;;;12.30;99.90;;;;;;4147991;28;20042;-62
2023/05/07 04:05:10;;;;;;;10.53;4.20;;;12.40;99.90;;;;;;4146866;28;20445;-58
2023/05/07 04:07:11;;;;;;;6.37;4.30;;;12.40;99.90;;;;;;4151563;28;20087;-60
2023/05/07 04:09:12;;;;;;;5.87;4.23;;;12.50;99.90;;;;;;4152511;28;20494;-59
2023/05/07 04:11:13;;;;;;;5.83;3.70;;;12.50;99.90;;;;;;4155571;28;20083;-61
2023/05/07 04:13:14;;;;;;;5.23;3.70;;;12.60;99.90;;;;;;4154528;28;20161;-62
2023/05/07 04:15:16;;;;;;;7.07;3.93;;;12.70;99.90;;;;;;4145524;28;20052;-74
2023/05/07 04:17:17;;;;;;;6.37;3.77;;;12.70;99.90;;;;;;4144294;28;20033;-59
2023/05/07 04:19:18;;;;;;;4.57;3.37;;;12.80;99.90;;;;;;4145014;28;20395;-67
2023/05/07 04:21:20;;;;;;;6.33;3.40;;;12.80;99.90;;;;;;4151066;28;20107;-58
2023/05/07 04:23:21;;;;;;;5.07;3.53;;;12.90;99.90;;;;;;4147982;28;20437;-74
2023/05/07 04:25:26;;;;;;;5.90;4.20;;;12.90;99.90;;;;;;4144851;28;20026;-58
2023/05/07 04:27:27;;;;;;;5.47;3.57;;;13.00;99.90;;;;;;4144872;28;20063;-60
2023/05/07 04:29:29;;;;;;;4.63;3.70;;;13.00;99.90;;;;;;4145592;28;20041;-62
2023/05/07 04:31:30;;;;;;;4.80;3.47;;;13.10;99.90;;;;;;4144215;28;20486;-66
2023/05/07 04:33:31;;;;;;;7.40;4.73;;;13.10;99.90;;;;;;4144823;28;20092;-66
2023/05/07 04:35:33;;;;;;;4.23;3.77;;;13.10;99.90;;;;;;4144781;28;20056;-70
2023/05/07 04:37:34;;;;;;;6.63;3.53;;;13.20;99.90;;;;;;4146197;28;20038;-73
2023/05/07 04:39:35;;;;;;;3.83;3.40;;;13.30;99.90;;;;;;4144036;28;20080;-59
2023/05/07 04:41:37;;;;;;;5.87;4.23;;;13.30;99.90;;;;;;4155851;28;20053;-60
2023/05/07 04:43:38;;;;;;;6.40;3.47;;;13.40;99.90;;;;;;4148249;28;20096;-60
2023/05/07 04:45:41;;;;;;;6.90;4.60;;;13.50;99.90;;;;;;4146276;28;20359;-69
2023/05/07 04:47:42;;;;;;;5.97;3.73;;;13.50;99.90;;;;;;4156049;28;20033;-59
2023/05/07 04:49:43;;;;;;;6.10;3.63;;;13.70;99.90;;;;;;4161150;28;20033;-56
2023/05/07 04:51:44;;;;;;;3.97;3.53;;;13.70;99.90;;;;;;4157041;28;20030;-55
2023/05/07 04:53:45;;;;;;;4.00;3.40;;;13.70;99.90;;;;;;4150906;28;20038;-58
2023/05/07 04:55:47;;;;;;;5.27;4.00;;;13.80;99.90;;;;;;4160873;28;20056;-59
2023/05/07 04:57:48;;;;;;;6.13;3.80;;;13.80;99.90;;;;;;4159427;28;20076;-60
2023/05/07 04:59:49;;;;;;;4.40;3.93;;;13.80;99.90;;;;;;4160570;28;20312;-64
2023/05/07 05:01:50;;;;;;;3.93;3.53;;;13.80;99.90;;;;;;4159828;28;20111;-61
2023/05/07 05:03:51;;;;;;;8.60;3.80;;;13.80;99.90;;;;;;4149672;28;20037;-62
2023/05/07 05:05:52;;;;;;;8.30;4.33;;;13.80;99.90;;;;;;4150861;28;20088;-65
2023/05/07 05:07:54;;;;;;;7.93;4.67;;;13.70;99.90;;;;;;4141679;28;20053;-59
2023/05/07 05:09:55;;;;;;;7.22;5.00;;;13.60;99.90;;;;;;4142349;28;20072;-70
2023/05/07 05:11:56;;;;;;;9.23;5.57;;;13.60;99.90;;;;;;4159713;28;20478;-59
2023/05/07 05:13:59;;;;;;;6.20;5.33;;;13.40;99.90;;;;;;4154082;28;20034;-58
2023/05/07 05:16:00;;;;;;;7.57;6.20;;;13.40;99.90;;;;;;4147769;28;20026;-58
2023/05/07 05:18:02;;;;;;;8.03;5.63;;;13.40;99.90;;;;;;4146197;28;20042;-59
2023/05/07 05:20:04;;;;;;;6.83;5.57;;;13.40;99.90;;;;;;4147445;28;20105;-68
2023/05/07 05:22:05;;;;;;;10.63;5.40;;;13.40;99.90;;;;;;4159288;28;20367;-58
2023/05/07 05:24:06;;;;;;;9.90;6.80;;;13.50;99.90;;;;;;4140308;28;20105;-60
2023/05/07 05:26:08;;;;;;;10.97;7.60;;;13.40;99.90;;;;;;4155892;28;20038;-60
2023/05/07 05:28:09;;;;;;;10.50;6.80;;;13.40;99.90;;;;;;4163109;28;20025;-58
2023/05/07 05:30:10;;;;;;;8.60;6.10;;;13.40;99.90;;;;;;4163949;28;20532;-56
2023/05/07 05:32:12;;;;;;;10.97;7.53;;;13.30;99.90;;;;;;4156656;28;20088;-59
2023/05/07 05:34:13;;;;;;;11.70;6.47;;;13.30;99.90;;;;;;4147514;28;20076;-57
2023/05/07 05:36:14;;;;;;;10.90;6.27;;;13.30;99.90;;;;;;4145955;28;20030;-59
2023/05/07 05:38:15;;;;;;;9.20;5.87;;;13.30;99.90;;;;;;4130031;28;20100;-56
2023/05/07 05:40:16;;;;;;;11.00;5.87;;;13.20;99.90;;;;;;4159019;28;20049;-60
2023/05/07 05:42:17;;;;;;;10.83;6.40;;;13.20;99.90;;;;;;4163491;28;20083;-59
2023/05/07 05:44:18;;;;;;;9.37;6.93;;;13.20;99.90;;;;;;4161630;28;20464;-59
2023/05/07 05:46:20;;;;;;;6.73;5.37;;;13.20;99.90;;;;;;4161512;28;20049;-59
2023/05/07 05:48:21;;;;;;;8.10;6.20;;;13.10;99.90;;;;;;4160987;28;20474;-59
2023/05/07 05:50:22;;;;;;;8.27;5.63;;;13.20;99.90;;;;;;4163321;28;20045;-59
2023/05/07 05:52:26;;;;;;;8.60;5.50;;;13.20;99.90;;;;;;4162156;28;20456;-59
2023/05/07 05:54:27;;;;;;;8.00;5.73;;;13.20;99.90;;;;;;4154814;28;20030;-59
2023/05/07 05:56:28;;;;;;;10.50;6.60;;;13.20;99.90;;;;;;4158133;28;20022;-58
2023/05/07 05:58:29;;;;;;;9.80;6.93;;;13.20;99.90;;;;;;4162734;28;20092;-65
2023/05/07 06:00:31;;;;;;;10.30;7.03;;;13.30;99.90;;;;;;4161493;28;20394;-61
2023/05/07 06:02:32;;;;;;;11.53;6.40;;;13.30;99.90;;;;;;4162252;28;20714;-60
2023/05/07 06:04:33;;;;;;;17.23;6.80;;;13.40;99.90;;;;;;4163060;28;20030;-73
2023/05/07 06:06:34;;;;;;;13.20;6.90;;;13.40;99.90;;;;;;4149783;28;20042;-72
2023/05/07 06:08:36;;;;;;;13.80;7.40;;;13.40;99.90;;;;;;4147920;28;20033;-72
2023/05/07 06:10:38;;;;;;;10.50;6.80;;;13.50;99.90;;;;;;4146279;28;20127;-60
2023/05/07 06:12:40;;;;;;;13.73;7.43;;;13.60;99.90;;;;;;4160503;28;20041;-62
2023/05/07 06:14:43;;;;;;;11.10;7.30;;;13.70;99.90;;;;;;4161176;28;20470;-61
2023/05/07 06:16:44;;;;;;;10.70;7.23;;;13.70;99.90;;;;;;4162864;28;20029;-60
2023/05/07 06:18:46;;;;;;;10.17;6.60;;;13.80;99.90;;;;;;4146549;28;20174;-59
2023/05/07 06:20:47;;;;;;;10.80;7.43;;;13.90;99.90;;;;;;4146831;28;20022;-59
2023/05/07 06:22:48;;;;;;;11.37;7.77;;;14.00;99.90;;;;;;4145642;28;20076;-58
2023/05/07 06:24:49;;;;;;;13.67;7.77;;;14.00;99.90;;;;;;4156623;28;20091;-59
2023/05/07 06:26:51;;;;;;;13.87;7.50;;;14.10;99.90;;;;;;4146543;28;20018;-70
2023/05/07 06:28:52;;;;;;;14.13;7.90;;;14.10;99.90;;;;;;4146012;28;20045;-61
2023/05/07 06:30:53;;;;;;;18.73;8.93;;;14.10;99.90;;;;;;4145510;28;20045;-58
2023/05/07 06:32:54;;;;;;;18.67;9.40;;;14.10;99.90;;;;;;4146575;28;20045;-60
2023/05/07 06:34:55;;;;;;;14.50;7.60;;;14.10;99.90;;;;;;4146027;28;20429;-58
2023/05/07 06:36:56;;;;;;;15.03;6.53;;;14.10;99.90;;;;;;4145380;28;20033;-67
2023/05/07 06:38:57;;;;;;;9.90;4.80;;;14.10;99.90;;;;;;4147326;28;20037;-67
2023/05/07 06:40:58;;;;;;;8.93;5.33;;;14.10;99.90;;;;;;4145660;28;20026;-66
2023/05/07 06:42:59;;;;;;;8.87;5.27;;;14.10;99.90;;;;;;4145598;28;20096;-71
2023/05/07 06:45:00;;;;;;;12.70;6.20;;;14.10;99.90;;;;;;4145114;28;20037;-60
2023/05/07 06:47:02;;;;;;;17.23;6.33;;;14.20;99.90;;;;;;4128677;28;20454;-60
2023/05/07 06:49:03;;;;;;;13.90;7.03;;;14.20;99.90;;;;;;4158380;28;20037;-61
2023/05/07 06:51:04;;;;;;;7.63;4.97;;;14.30;99.90;;;;;;4162103;28;20083;-59
2023/05/07 06:53:05;;;;;;;9.93;4.80;;;14.20;99.90;;;;;;4160693;28;20108;-57
2023/05/07 06:55:07;;;;;;;7.33;4.27;;;14.30;99.90;;;;;;4160987;28;20087;-70
2023/05/07 06:57:08;;;;;;;13.38;5.25;;;14.30;99.90;;;;;;4150406;28;20061;-68
2023/05/07 06:59:09;;;;;;;9.45;4.95;;;14.40;99.90;;;;;;4162428;28;20025;-59
2023/05/07 07:01:10;;;;;;;10.35;5.85;;;14.40;99.90;;;;;;4160873;28;20060;-58
2023/05/07 07:03:11;;;;;;;15.38;6.03;;;14.50;99.90;;;;;;4147066;28;20103;-59
2023/05/07 07:05:12;;;;;;;15.35;7.07;;;14.50;99.90;;;;;;4145199;28;20034;-59
2023/05/07 07:07:14;;;;;;;12.03;6.97;;;14.50;99.90;;;;;;4159830;28;20037;-67
2023/05/07 07:09:15;;;;;;;13.63;6.80;;;14.50;99.90;;;;;;4159272;28;20478;-58
2023/05/07 07:11:16;;;;;;;23.33;6.53;;;14.50;99.90;;;;;;4158641;28;20045;-58
2023/05/07 07:13:17;;;;;;;11.30;6.07;;;14.50;99.90;;;;;;4146425;28;20091;-59
2023/05/07 07:15:24;;;;;;;11.15;6.18;;;14.40;99.90;;;;;;4144238;28;20033;-71
2023/05/07 07:17:25;;;;;;;6.63;4.57;;;14.40;99.90;;;;;;4146614;28;20092;-68
2023/05/07 07:19:26;;;;;;;8.60;4.25;;;14.50;99.90;;;;;;4151603;28;20551;-71
2023/05/07 07:21:28;;;;;;;7.25;3.85;;;14.50;99.90;;;;;;4144162;28;20038;-64
2023/05/07 07:23:29;;;;;;;8.00;3.72;;;14.60;99.90;;;;;;4149749;28;20429;-60
2023/05/07 07:25:30;;;;;;;5.85;3.58;;;14.50;99.90;;;;;;4146991;28;20026;-59
2023/05/07 07:27:31;;;;;;;7.65;4.25;;;14.50;99.90;;;;;;4155775;28;20030;-59
2023/05/07 07:29:32;;;;;;;5.35;3.20;;;14.40;99.90;;;;;;4145307;28;20042;-60
2023/05/07 07:31:33;;;;;;;6.80;3.97;;;14.30;99.90;;;;;;4145040;28;20482;-60
2023/05/07 07:33:34;;;;;;;7.03;4.15;;;14.30;99.90;;;;;;4144459;28;20037;-72
2023/05/07 07:35:35;;;;;;;5.67;3.90;;;14.20;99.90;;;;;;4157591;28;20030;-72
2023/05/07 07:37:37;;;;;;;6.10;4.03;;;14.20;99.90;;;;;;4129793;28;20038;-58
2023/05/07 07:39:38;;;;;;;6.57;3.97;;;14.10;99.90;;;;;;4153562;28;20049;-64
2023/05/07 07:41:39;;;;;;;7.10;4.38;;;14.00;99.90;;;;;;4147463;28;20026;-58
2023/05/07 07:43:40;;;;;;;10.82;4.45;;;13.90;99.90;;;;;;4145224;28;20433;-57
2023/05/07 07:45:41;;;;;;;6.23;4.03;;;13.90;99.90;;;;;;4156861;28;20045;-57
2023/05/07 07:47:44;;;;;;;8.18;4.00;;;13.80;99.90;;;;;;4160931;28;20437;-58
2023/05/07 07:49:45;;;;;;;8.93;4.53;;;13.80;99.90;;;;;;4160257;28;20021;-63
2023/05/07 07:51:46;;;;;;;5.90;4.30;;;13.70;99.90;;;;;;4161877;28;20025;-62
2023/05/07 07:53:47;;;;;;;12.13;4.80;;;13.60;99.90;;;;;;4160778;28;20025;-64
2023/05/07 07:55:48;;;;;;;8.90;4.77;;;13.70;99.90;;;;;;4151758;28;20041;-61
2023/05/07 07:57:50;;;;;;;10.77;6.10;;;13.60;99.90;;;;;;4153903;28;20102;-60
2023/05/07 07:59:51;;;;;;;11.00;6.90;;;13.60;99.90;;;;;;4146976;28;20068;-73
2023/05/07 08:01:55;;;;;;;18.17;12.43;;;13.60;99.90;;;;;;4157258;28;20041;-58
2023/05/07 08:03:58;;;;;;;13.10;7.87;;;13.60;99.90;;;;;;4160574;28;20029;-69
2023/05/07 08:05:59;;;;;;;10.20;5.90;;;13.70;99.90;;;;;;4153806;28;20080;-61
2023/05/07 08:08:01;;;;;;;11.60;5.93;;;13.70;99.90;;;;;;4151681;28;20087;-69
2023/05/07 08:10:02;;;;;;;15.30;7.87;;;13.70;99.90;;;;;;4160322;28;20091;-66
2023/05/07 08:12:04;;;;;;;8.53;5.80;;;13.60;99.90;;;;;;4132538;28;20100;-59
2023/05/07 08:14:05;;;;;;;11.73;5.47;;;13.50;99.90;;;;;;4145487;28;20045;-60
2023/05/07 08:16:06;;;;;;;9.90;6.07;;;13.60;99.90;;;;;;4144083;28;20104;-60
2023/05/07 08:18:07;;;;;;;11.50;5.10;;;13.60;99.90;;;;;;4145840;28;20034;-66
2023/05/07 08:20:09;;;;;;;8.87;5.50;;;13.60;99.90;;;;;;4144933;28;20030;-64
2023/05/07 08:22:10;;;;;;;8.40;5.30;;;13.60;99.90;;;;;;4154255;28;20465;-59
2023/05/07 08:24:11;;;;;;;8.27;5.03;;;13.70;99.90;;;;;;4143346;28;20041;-60
2023/05/07 08:26:12;;;;;;;8.87;6.17;;;13.70;99.90;;;;;;4147647;28;20088;-67
2023/05/07 08:28:14;;;;;;;6.90;5.13;;;13.70;99.90;;;;;;4151482;28;20041;-71
2023/05/07 08:30:15;;;;;;;7.67;5.17;;;13.70;99.90;;;;;;4149648;28;20498;-61
2023/05/07 08:32:16;;;;;;;6.57;4.73;;;13.60;99.90;;;;;;4143791;28;20106;-71
2023/05/07 08:34:18;;;;;;;9.33;6.80;;;13.70;99.90;;;;;;4144674;28;20080;-61
2023/05/07 08:36:19;;;;;;;7.10;5.33;;;13.70;99.90;;;;;;4143993;28;20030;-62
2023/05/07 08:38:20;;;;;;;6.90;5.27;;;13.70;99.90;;;;;;4128897;28;20034;-62
2023/05/07 08:40:26;;;;;;;10.67;5.83;;;13.60;99.90;;;;;;4146106;28;20045;-63
2023/05/07 08:42:29;;;;;;;8.13;4.87;;;13.60;99.90;;;;;;4144893;28;20046;-61
2023/05/07 08:44:34;;;;;;;8.33;5.20;;;13.50;99.90;;;;;;4145135;28;20038;-68
2023/05/07 08:46:36;;;;;;;5.23;4.70;;;13.50;99.90;;;;;;4144394;28;20038;-64
2023/05/07 08:48:37;;;;;;;7.93;5.17;;;13.50;99.90;;;;;;4146282;28;20030;-64
2023/05/07 08:50:38;;;;;;;9.33;6.17;;;13.50;99.90;;;;;;4152265;28;20045;-62
2023/05/07 08:52:40;;;;;;;9.23;6.03;;;13.50;99.90;;;;;;4164481;28;20034;-62
2023/05/07 08:54:42;;;;;;;9.50;6.60;;;13.50;99.90;;;;;;4161151;28;20029;-58
2023/05/07 08:56:43;;;;;;;12.63;6.30;;;13.50;99.90;;;;;;4150573;28;20042;-60
2023/05/07 08:58:45;;;;;;;9.30;6.50;;;13.50;99.90;;;;;;4159096;28;20037;-64
2023/05/07 09:00:47;;;;;;;11.27;7.40;;;13.40;99.90;;;;;;4145982;28;20041;-77
2023/05/07 09:02:49;;;;;;;10.17;6.73;;;13.40;99.90;;;;;;4146576;28;20175;-73
2023/05/07 09:04:51;;;;;;;10.00;7.07;;;13.50;99.90;;;;;;4161172;28;20079;-67
2023/05/07 09:06:52;;;;;;;9.43;6.63;;;13.50;99.90;;;;;;4163656;28;20660;-75
2023/05/07 09:08:54;;;;;;;10.77;7.93;;;13.60;99.90;;;;;;4147239;28;20072;-68
2023/05/07 09:10:55;;;;;;;14.63;7.87;;;13.60;99.90;;;;;;4149170;28;20445;-75
2023/05/07 09:12:56;;;;;;;10.77;8.00;;;13.60;99.90;;;;;;4148281;28;20046;-74
2023/05/07 09:14:59;;;;;;;11.17;7.13;;;13.60;99.90;;;;;;4147193;28;20038;-72
2023/05/07 09:17:00;;;;;;;13.00;7.23;;;13.70;99.90;;;;;;4154019;28;20045;-72
2023/05/07 09:19:01;;;;;;;10.23;7.73;;;13.70;99.90;;;;;;4147906;28;20118;-74
2023/05/07 09:21:02;;;;;;;13.97;8.50;;;13.70;99.90;;;;;;4150253;28;20041;-74
2023/05/07 09:23:04;;;;;;;9.90;8.33;;;13.80;99.90;;;;;;4163376;28;20091;-74
2023/05/07 09:25:09;;;;;;;12.33;7.63;;;13.80;99.90;;;;;;4161453;28;20041;-71
2023/05/07 09:27:13;;;;;;;10.47;6.57;;;13.80;99.90;;;;;;4130902;28;20038;-68
2023/05/07 09:29:16;;;;;;;10.67;6.90;;;13.80;99.90;;;;;;4157340;28;20026;-74
2023/05/07 09:31:18;;;;;;;15.33;7.33;;;13.80;99.90;;;;;;4146555;28;20092;-68
2023/05/07 09:33:19;;;;;;;10.97;7.10;;;13.80;99.90;;;;;;4146263;28;20070;-73
2023/05/07 09:35:27;;;;;;;9.53;6.93;;;13.80;99.90;;;;;;4146814;28;20050;-79
2023/05/07 09:37:30;;;;;;;12.50;6.70;;;13.80;99.90;;;;;;4147912;28;20021;-62
2023/05/07 09:39:48;;;;;;;13.50;7.07;;;13.90;99.90;;;;;;4162059;28;20033;-63
2023/05/07 09:41:51;;;;;;;11.30;6.87;;;14.00;99.90;;;;;;4161345;28;20559;-73
2023/05/07 09:43:55;;;;;;;9.23;7.40;;;14.10;99.90;;;;;;4163288;28;20049;-75
2023/05/07 09:45:57;;;;;;;11.17;8.03;;;14.10;99.90;;;;;;4160368;28;20034;-61
2023/05/07 09:47:59;;;;;;;9.37;6.53;;;14.20;99.90;;;;;;4162175;28;20029;-62
2023/05/07 09:50:05;;;;;;;10.90;7.53;;;14.30;99.90;;;;;;4146383;28;20030;-64
2023/05/07 09:52:08;;;;;;;11.03;6.70;;;14.20;99.90;;;;;;4147290;28;20557;-69
2023/05/07 09:54:10;;;;;;;10.65;7.88;;;14.30;99.90;;;;;;4153385;28;20568;-72
2023/05/07 09:56:13;;;;;;;9.17;7.30;;;14.40;99.90;;;;;;4149573;28;20046;-77
2023/05/07 09:58:16;;;;;;;8.20;6.00;;;14.30;99.90;;;;;;4158002;28;20552;-73
2023/05/07 10:00:19;;;;;;;7.35;5.20;;;14.30;99.90;;;;;;4160036;28;20038;-73
2023/05/07 10:02:21;;;;;;;7.63;6.07;;;14.30;99.90;;;;;;4152134;28;20049;-71
2023/05/07 10:04:23;;;;;;;7.40;5.67;;;14.30;99.90;;;;;;4162144;28;20025;-70
2023/05/07 10:06:25;;;;;;;7.30;5.50;;;14.30;99.90;;;;;;4160378;28;20084;-71
2023/05/07 10:08:27;;;;;;;9.50;6.67;;;14.30;99.90;;;;;;4148393;28;20030;-76
2023/05/07 10:10:30;;;;;;;8.67;6.03;;;14.30;99.90;;;;;;4151583;28;20092;-76
2023/05/07 10:12:37;;;;;;;7.87;6.20;;;14.30;99.90;;;;;;4152498;28;20025;-69
2023/05/07 10:14:38;;;;;;;9.80;5.93;;;14.40;99.90;;;;;;4150831;28;20475;-75
2023/05/07 10:16:40;;;;;;;8.33;5.97;;;14.40;99.90;;;;;;4145474;28;20434;-72
2023/05/07 10:18:43;;;;;;;7.83;6.17;;;14.40;99.90;;;;;;4146094;28;20053;-67
2023/05/07 10:20:47;;;;;;;7.77;5.57;;;14.50;99.90;;;;;;4150595;28;20109;-68
2023/05/07 10:22:50;;;;;;;6.50;5.38;;;14.50;99.90;;;;;;4145316;28;20175;-62
2023/05/07 10:24:54;;;;;;;7.60;5.72;;;14.60;99.90;;;;;;4146824;28;20025;-70
2023/05/07 10:26:58;;;;;;;8.75;5.93;;;14.60;99.90;;;;;;4160459;28;20049;-71
2023/05/07 10:29:06;;;;;;;7.85;5.57;;;14.70;99.90;;;;;;4161889;28;20095;-71
2023/05/07 10:31:59;;;;;;;6.65;5.72;;;14.70;99.90;;;;;;4161792;28;20560;-76